Time;durP1;ratioP1;P1;durP2;ratioP2;P2;SDS_P1;SDS_P2;PMS_P1;PMS_P2;Temp;Humidity;BMP_temperature;BMP_pressure;BME280_temperature;BME280_humidity;BME280_pressure;Samples;Min_cycle;Max_cycle;Signal;HPM_P1;HPM_P2
2022/01/28 00:00:59;;;;;;;4.90;1.00;;;;;;;;;;5093801;28;20024;-49
2022/01/28 00:03:25;;;;;;;2.85;0.88;;;;;;;;;;5093175;28;20522;-49
2022/01/28 00:05:51;;;;;;;2.63;0.80;;;;;;;;;;5093353;28;20049;-49
2022/01/28 00:08:17;;;;;;;5.13;0.95;;;;;;;;;;5092095;28;20032;-49
2022/01/28 00:10:43;;;;;;;3.00;0.80;;;;;;;;;;5093482;28;20031;-48
2022/01/28 00:39:47;;;;;;;1.67;0.55;;;;;;;;;;5092851;28;20177;-49
2022/01/28 00:42:13;;;;;;;3.90;0.85;;;;;;;;;;5092822;28;20490;-50
2022/01/28 00:44:39;;;;;;;5.30;0.80;;;;;;;;;;5092832;28;20505;-50
2022/01/28 00:47:05;;;;;;;2.88;0.80;;;;;;;;;;5093065;28;20158;-48
2022/01/28 00:49:31;;;;;;;2.53;1.15;;;;;;;;;;5092722;28;20077;-49
2022/01/28 00:51:57;;;;;;;3.97;1.20;;;;;;;;;;5092952;28;20388;-49
2022/01/28 00:54:23;;;;;;;2.35;0.60;;;;;;;;;;5092657;28;20028;-48
2022/01/28 00:56:49;;;;;;;3.65;0.73;;;;;;;;;;5092650;28;20061;-49
2022/01/28 00:59:16;;;;;;;4.82;1.05;;;;;;;;;;5092617;28;20028;-49
2022/01/28 01:01:42;;;;;;;3.10;0.75;;;;;;;;;;5092570;28;20028;-47
2022/01/28 01:04:08;;;;;;;1.42;0.70;;;;;;;;;;5092386;28;20490;-43
2022/01/28 01:06:34;;;;;;;3.17;0.75;;;;;;;;;;5092560;28;20082;-44
2022/01/28 01:09:00;;;;;;;2.78;0.80;;;;;;;;;;5092488;28;20031;-43
2022/01/28 01:11:27;;;;;;;1.52;0.57;;;;;;;;;;5092405;28;20059;-43
2022/01/28 01:13:56;;;;;;;2.60;0.63;;;15.50;92.40;;;;;;5092431;28;20024;-44
2022/01/28 01:16:35;;;;;;;4.85;1.02;;;;;;;;;;5092369;28;20048;-45
2022/01/28 01:21:39;;;;;;;7.20;1.50;;;;;;;;;;5092687;28;20039;-44
2022/01/28 01:24:07;;;;;;;3.17;0.80;;;;;;;;;;5092609;28;20035;-44
2022/01/28 01:26:36;;;;;;;3.60;0.50;;;;;;;;;;5092549;28;20052;-45
2022/01/28 01:29:11;;;;;;;7.15;0.90;;;15.40;92.50;;;;;;5092510;28;20047;-43
2022/01/28 01:31:40;;;;;;;3.25;0.90;;;;;;;;;;5090907;28;20482;-44
2022/01/28 01:34:18;;;;;;;4.50;0.87;;;;;;;;;;5092259;28;20596;-44
2022/01/28 01:36:45;;;;;;;3.78;0.70;;;;;;;;;;5092502;28;20016;-44
2022/01/28 01:39:15;;;;;;;3.25;0.85;;;15.30;92.30;;;;;;5092286;28;20032;-45
2022/01/28 01:41:47;;;;;;;1.15;0.45;;;;;;;;;;5094590;28;20424;-43
2022/01/28 01:47:16;;;;;;;2.38;0.60;;;;;;;;;;5096155;28;20482;-44
2022/01/28 01:52:26;;;;;;;2.78;0.70;;;;;;;;;;5096036;28;20489;-44
2022/01/28 01:54:52;;;;;;;3.42;1.00;;;;;;;;;;5096013;28;20107;-44
2022/01/28 01:57:19;;;;;;;2.35;0.50;;;;;;;;;;5095962;28;20028;-50
2022/01/28 01:59:47;;;;;;;3.38;0.60;;;;;;;;;;5096144;28;20483;-43
2022/01/28 02:02:13;;;;;;;2.13;0.50;;;;;;;;;;5095768;28;20024;-44
2022/01/28 02:04:39;;;;;;;3.83;0.80;;;;;;;;;;5095576;28;20051;-44
2022/01/28 02:07:05;;;;;;;3.17;0.75;;;15.20;90.80;;;;;;5095718;28;20028;-44
2022/01/28 02:09:31;;;;;;;3.20;0.63;;;;;;;;;;5095726;28;20077;-44
2022/01/28 02:11:57;;;;;;;4.20;1.13;;;;;;;;;;5095916;28;20020;-43
2022/01/28 02:14:23;;;;;;;2.60;0.60;;;;;;;;;;5095668;28;20052;-44
2022/01/28 02:16:49;;;;;;;5.32;0.70;;;;;;;;;;5095645;28;20066;-44
2022/01/28 02:19:15;;;;;;;3.20;0.80;;;;;;;;;;5095589;28;20028;-44
2022/01/28 02:21:48;;;;;;;2.47;0.50;;;;;;;;;;5095526;28;20038;-43
2022/01/28 02:24:17;;;;;;;2.03;0.77;;;;;;;;;;5095670;28;20043;-44
2022/01/28 02:26:44;;;;;;;4.72;0.70;;;;;;;;;;5095679;28;20078;-43
2022/01/28 02:29:13;;;;;;;1.80;0.65;;;;;;;;;;5095377;28;20032;-44
2022/01/28 02:31:40;;;;;;;4.63;1.00;;;;;;;;;;5095264;28;20567;-45
2022/01/28 02:34:09;;;;;;;2.08;0.60;;;;;;;;;;5095302;28;20051;-50
2022/01/28 02:36:36;;;;;;;3.60;0.88;;;;;;;;;;5095294;28;20482;-43
2022/01/28 02:39:03;;;;;;;2.40;1.02;;;;;;;;;;5095157;28;20482;-43
2022/01/28 02:41:34;;;;;;;2.83;0.77;;;;;;;;;;5095662;28;20024;-44
2022/01/28 02:46:38;;;;;;;2.50;0.85;;;;;;;;;;5095078;28;20488;-43
2022/01/28 02:49:08;;;;;;;3.03;0.60;;;;;;;;;;5095165;28;20028;-43
2022/01/28 02:51:34;;;;;;;4.20;0.82;;;;;;;;;;5094907;28;20027;-44
2022/01/28 02:54:11;;;;;;;4.35;0.68;;;;;;;;;;5094283;28;20028;-45
2022/01/28 02:56:39;;;;;;;1.52;0.60;;;;;;;;;;5095162;28;20031;-44
2022/01/28 02:59:06;;;;;;;2.80;0.63;;;;;;;;;;5094777;28;20552;-44
2022/01/28 03:01:32;;;;;;;4.18;0.70;;;;;;;;;;5094615;28;20036;-43
2022/01/28 03:04:01;;;;;;;2.05;0.70;;;;;;;;;;5094431;28;20383;-44
2022/01/28 03:06:27;;;;;;;4.30;0.80;;;;;;;;;;5095221;28;20081;-43
2022/01/28 03:09:13;;;;;;;3.20;0.60;;;;;;;;;;5094565;28;20028;-43
2022/01/28 03:11:44;;;;;;;2.78;0.80;;;;;;;;;;5094865;28;20447;-51
2022/01/28 03:19:27;;;;;;;2.95;0.68;;;;;;;;;;5094664;28;20028;-50
2022/01/28 03:21:55;;;;;;;1.27;0.70;;;;;;;;;;5092981;28;20509;-48
2022/01/28 03:24:22;;;;;;;4.43;0.90;;;15.10;92.60;;;;;;5094157;28;20036;-49
2022/01/28 03:26:51;;;;;;;3.08;0.73;;;;;;;;;;5094189;28;20456;-48
2022/01/28 03:29:17;;;;;;;2.40;0.52;;;;;;;;;;5094157;28;20474;-44
2022/01/28 03:31:43;;;;;;;2.83;0.90;;;;;;;;;;5094165;28;20036;-47
2022/01/28 03:34:09;;;;;;;3.33;0.80;;;;;;;;;;5094033;28;20049;-48
2022/01/28 03:36:36;;;;;;;2.38;0.60;;;;;;;;;;5094028;28;20479;-49
2022/01/28 03:39:02;;;;;;;2.15;0.80;;;;;;;;;;5093983;28;20371;-49
2022/01/28 03:41:28;;;;;;;0.82;0.30;;;;;;;;;;5093872;28;20110;-48
2022/01/28 03:44:00;;;;;;;2.75;0.60;;;;;;;;;;5093805;28;20067;-49
2022/01/28 03:46:27;;;;;;;3.42;0.75;;;;;;;;;;5093865;28;20020;-49
2022/01/28 03:48:53;;;;;;;2.63;0.68;;;;;;;;;;5093785;28;20039;-44
2022/01/28 03:51:19;;;;;;;3.25;1.00;;;;;;;;;;5094021;28;20089;-44
2022/01/28 03:53:45;;;;;;;3.35;0.82;;;;;;;;;;5093695;28;20490;-44
2022/01/28 03:56:11;;;;;;;3.10;1.17;;;;;;;;;;5093615;28;20467;-44
2022/01/28 03:58:37;;;;;;;6.70;1.60;;;;;;;;;;5093572;28;20124;-44
2022/01/28 04:01:09;;;;;;;1.35;0.47;;;;;;;;;;5093515;28;20442;-45
2022/01/28 04:11:31;;;;;;;2.15;0.60;;;;;;;;;;5093692;28;20038;-44
2022/01/28 04:14:07;;;;;;;1.85;0.70;;;14.90;92.60;;;;;;5093627;28;20047;-43
2022/01/28 04:19:18;;;;;;;2.88;0.90;;;;;;;;;;5093807;28;20043;-44
2022/01/28 04:21:44;;;;;;;2.78;0.77;;;;;;;;;;5093172;28;20497;-43
2022/01/28 04:24:10;;;;;;;2.22;0.60;;;;;;;;;;5093131;28;20033;-43
2022/01/28 04:26:36;;;;;;;2.78;0.77;;;;;;;;;;5093184;28;20032;-51
2022/01/28 04:29:02;;;;;;;2.28;0.85;;;;;;;;;;5093099;28;20386;-48
2022/01/28 04:31:28;;;;;;;1.45;0.60;;;;;;;;;;5093031;28;20034;-48
2022/01/28 04:33:55;;;;;;;2.50;0.70;;;;;;;;;;5093274;28;20027;-49
2022/01/28 04:36:24;;;;;;;1.70;0.70;;;;;;;;;;5093194;28;20397;-50
2022/01/28 04:39:42;;;;;;;1.90;0.80;;;;;;;;;;5092906;28;20447;-49
2022/01/28 04:41:52;;;;;;;2.50;0.55;;;;;;;;;;5085309;28;20119;-48
2022/01/28 04:44:25;;;;;;;1.55;0.65;;;;;;;;;;5093012;28;20035;-48
2022/01/28 04:47:08;;;;;;;1.17;0.47;;;;;;;;;;5092786;28;20054;-49
2022/01/28 04:49:48;;;;;;;2.55;0.45;;;;;;;;;;5093069;28;20462;-49
2022/01/28 05:00:45;;;;;;;4.15;0.93;;;;;;;;;;5092608;28;20093;-49
2022/01/28 05:03:28;;;;;;;2.30;0.50;;;;;;;;;;5092575;28;20052;-49
2022/01/28 05:14:49;;;;;;;2.88;1.00;;;;;;;;;;5092453;28;20494;-51
2022/01/28 05:16:56;;;;;;;2.72;0.90;;;;;;;;;;5086332;28;20039;-49
2022/01/28 05:27:22;;;;;;;2.92;0.80;;;;;;;;;;5092606;28;20039;-48
2022/01/28 05:29:48;;;;;;;2.70;0.60;;;;;;;;;;5092297;28;20032;-48
2022/01/28 05:32:14;;;;;;;2.88;0.75;;;;;;;;;;5092328;28;20103;-48
2022/01/28 05:34:41;;;;;;;2.88;0.57;;;14.70;92.60;;;;;;5092255;28;20019;-47
2022/01/28 05:37:07;;;;;;;3.40;0.77;;;14.60;92.50;;;;;;5092165;28;20028;-48
2022/01/28 05:39:34;;;;;;;1.67;0.35;;;;;;;;;;5092227;28;20020;-49
2022/01/28 05:42:00;;;;;;;2.28;0.57;;;;;;;;;;5092272;28;20024;-48
2022/01/28 05:44:27;;;;;;;2.28;0.50;;;;;;;;;;5092051;28;20371;-48
2022/01/28 05:46:55;;;;;;;3.15;0.80;;;;;;;;;;5092131;28;20031;-49
2022/01/28 05:49:21;;;;;;;1.85;0.73;;;;;;;;;;5092216;28;20020;-49
2022/01/28 05:51:47;;;;;;;3.83;0.80;;;;;;;;;;5092337;28;20036;-50
2022/01/28 05:54:13;;;;;;;1.92;0.65;;;;;;;;;;5092099;28;20389;-49
2022/01/28 05:56:39;;;;;;;2.78;0.70;;;;;;;;;;5092043;28;20028;-44
2022/01/28 05:59:05;;;;;;;1.73;0.47;;;;;;;;;;5092178;28;20032;-49
2022/01/28 06:01:31;;;;;;;3.35;0.98;;;;;;;;;;5091889;28;20052;-50
2022/01/28 06:03:58;;;;;;;3.15;0.50;;;;;;;;;;5091742;28;20056;-49
2022/01/28 06:06:24;;;;;;;2.50;0.70;;;;;;;;;;5091977;28;20032;-48
2022/01/28 06:08:54;;;;;;;2.15;0.70;;;14.80;92.60;;;;;;5091853;28;20028;-49
2022/01/28 06:11:21;;;;;;;4.40;0.75;;;;;;;;;;5092005;28;20486;-49
2022/01/28 06:13:47;;;;;;;0.50;0.30;;;;;;;;;;5091854;28;20142;-50
2022/01/28 06:16:14;;;;;;;2.28;0.68;;;15.10;92.20;;;;;;5091982;28;20036;-43
2022/01/28 06:18:40;;;;;;;2.78;0.90;;;;;;;;;;5091784;28;20592;-44
2022/01/28 06:21:06;;;;;;;2.03;0.75;;;;;;;;;;5091811;28;20034;-43
2022/01/28 06:23:33;;;;;;;2.10;0.50;;;;;;;;;;5091801;28;20107;-43
2022/01/28 06:25:59;;;;;;;2.60;0.63;;;;;;;;;;5091571;28;20032;-42
2022/01/28 06:28:25;;;;;;;4.97;0.60;;;;;;;;;;5093055;28;20028;-43
2022/01/28 06:30:51;;;;;;;2.22;0.57;;;;;;;;;;5093819;28;20054;-43
2022/01/28 06:33:17;;;;;;;2.17;0.63;;;;;;;;;;5095169;28;20034;-43
2022/01/28 06:35:44;;;;;;;2.72;0.50;;;15.60;91.90;;;;;;5095361;28;20398;-42
2022/01/28 06:38:10;;;;;;;2.10;0.52;;;;;;;;;;5095101;28;20458;-43
2022/01/28 06:40:37;;;;;;;2.13;0.70;;;;;;;;;;5094988;28;20031;-43
2022/01/28 06:43:03;;;;;;;2.55;0.70;;;;;;;;;;5094920;28;20035;-43
2022/01/28 06:45:29;;;;;;;3.25;0.50;;;;;;;;;;5095104;28;20040;-44
2022/01/28 06:47:55;;;;;;;2.45;0.50;;;;;;;;;;5094767;28;20073;-43
2022/01/28 06:50:21;;;;;;;1.50;0.52;;;;;;;;;;5095195;28;20028;-43
2022/01/28 06:52:47;;;;;;;1.25;0.50;;;;;;;;;;5094818;28;20517;-44
2022/01/28 06:55:14;;;;;;;1.00;0.50;;;;;;;;;;5095137;28;20497;-43
2022/01/28 06:57:40;;;;;;;1.23;0.43;;;;;;;;;;5094996;28;20116;-43
2022/01/28 07:00:08;;;;;;;6.18;0.40;;;15.90;92.30;;;;;;5094693;28;20028;-45
2022/01/28 07:02:34;;;;;;;2.60;0.90;;;;;;;;;;5094358;28;20042;-44
2022/01/28 07:05:00;;;;;;;0.90;0.40;;;;;;;;;;5094595;28;20035;-44
2022/01/28 07:07:26;;;;;;;1.50;0.82;;;;;;;;;;5094653;28;20063;-43
2022/01/28 07:09:52;;;;;;;2.85;1.35;;;;;;;;;;5094521;28;20028;-43
2022/01/28 07:12:19;;;;;;;3.45;0.38;;;;;;;;;;5094612;28;20031;-44
2022/01/28 07:14:45;;;;;;;2.22;0.60;;;;;;;;;;5094404;28;20024;-43
2022/01/28 07:17:11;;;;;;;2.50;0.50;;;;;;;;;;5094776;28;20020;-44
2022/01/28 07:19:37;;;;;;;4.60;0.70;;;;;;;;;;5094379;28;20089;-43
2022/01/28 07:22:04;;;;;;;3.05;0.80;;;;;;;;;;5094321;28;20099;-44
2022/01/28 07:24:30;;;;;;;2.10;0.60;;;;;;;;;;5094240;28;20036;-43
2022/01/28 07:26:56;;;;;;;2.08;0.55;;;;;;;;;;5094245;28;20028;-43
2022/01/28 07:29:27;;;;;;;4.60;1.08;;;;;;;;;;5094073;28;20028;-44
2022/01/28 07:31:53;;;;;;;2.35;0.70;;;;;;;;;;5094011;28;20577;-43
2022/01/28 07:34:19;;;;;;;5.40;1.27;;;;;;;;;;5093966;28;20085;-43
2022/01/28 07:36:45;;;;;;;2.80;0.95;;;;;;;;;;5094164;28;20107;-42
2022/01/28 07:39:11;;;;;;;3.42;1.10;;;;;;;;;;5093783;28;20024;-43
2022/01/28 07:41:37;;;;;;;2.83;1.00;;;;;;;;;;5093763;28;20039;-43
2022/01/28 07:44:04;;;;;;;4.38;0.73;;;;;;;;;;5093502;28;20505;-43
2022/01/28 07:46:30;;;;;;;3.35;1.20;;;;;;;;;;5093715;28;20031;-43
2022/01/28 07:48:56;;;;;;;4.90;1.08;;;;;;;;;;5093795;28;20024;-44
2022/01/28 07:51:22;;;;;;;6.05;1.42;;;;;;;;;;5093828;28;20107;-44
2022/01/28 07:53:48;;;;;;;5.47;0.90;;;;;;;;;;5093717;28;20028;-43
2022/01/28 07:56:15;;;;;;;2.85;1.08;;;;;;;;;;5093896;28;20035;-42
2022/01/28 07:58:41;;;;;;;3.92;1.38;;;;;;;;;;5093618;28;20524;-42
2022/01/28 08:01:06;;;;;;;4.38;1.10;;;;;;;;;;5093601;28;20028;-42
2022/01/28 08:03:33;;;;;;;3.72;1.20;;;;;;;;;;5093293;28;20105;-43
2022/01/28 08:05:58;;;;;;;6.97;1.42;;;;;;;;;;5093689;28;20036;-42
2022/01/28 08:08:24;;;;;;;5.57;1.60;;;;;;;;;;5093512;28;20046;-43
2022/01/28 08:10:51;;;;;;;5.85;1.50;;;;;;;;;;5093411;28;20034;-43
2022/01/28 08:13:17;;;;;;;3.22;1.00;;;;;;;;;;5093297;28;20095;-43
2022/01/28 08:15:43;;;;;;;6.18;1.50;;;;;;;;;;5093648;28;20024;-43
2022/01/28 08:18:09;;;;;;;4.20;1.42;;;;;;;;;;5093256;28;20036;-42
2022/01/28 08:20:36;;;;;;;8.90;1.30;;;;;;;;;;5092999;28;20103;-43
2022/01/28 08:23:02;;;;;;;3.85;1.27;;;;;;;;;;5092896;28;20032;-42
2022/01/28 08:25:31;;;;;;;4.10;1.27;;;16.20;91.90;;;;;;5093481;28;20368;-42
2022/01/28 08:27:57;;;;;;;4.55;1.85;;;;;;;;;;5093373;28;20027;-43
2022/01/28 08:30:25;;;;;;;4.85;1.23;;;16.60;91.40;;;;;;5093048;28;20413;-42
2022/01/28 08:32:52;;;;;;;3.70;1.13;;;16.70;90.30;;;;;;5092944;28;20421;-42
2022/01/28 08:35:21;;;;;;;3.17;1.30;;;;;;;;;;5092912;28;20024;-42
2022/01/28 08:37:47;;;;;;;7.82;1.77;;;;;;;;;;5093181;28;20391;-44
2022/01/28 08:40:13;;;;;;;6.25;1.92;;;;;;;;;;5093071;28;20039;-42
2022/01/28 08:42:39;;;;;;;4.18;1.55;;;;;;;;;;5093144;28;20024;-46
2022/01/28 08:45:05;;;;;;;4.50;1.60;;;;;;;;;;5092814;28;20028;-46
2022/01/28 08:47:31;;;;;;;3.40;1.27;;;;;;;;;;5093001;28;20398;-46
2022/01/28 08:49:57;;;;;;;2.70;1.25;;;;;;;;;;5092712;28;20024;-48
2022/01/28 08:52:23;;;;;;;6.47;1.75;;;;;;;;;;5092240;28;20039;-46
2022/01/28 08:54:49;;;;;;;5.75;1.42;;;;;;;;;;5092718;28;20071;-45
2022/01/28 08:57:15;;;;;;;3.55;1.48;;;;;;;;;;5092620;28;20138;-46
2022/01/28 08:59:43;;;;;;;5.93;1.80;;;;;;;;;;5092626;28;20107;-46
2022/01/28 09:02:09;;;;;;;5.95;1.60;;;;;;;;;;5092543;28;20064;-46
2022/01/28 09:04:35;;;;;;;4.07;2.05;;;;;;;;;;5092270;28;20051;-45
2022/01/28 09:07:01;;;;;;;4.63;1.30;;;;;;;;;;5092495;28;20103;-46
2022/01/28 09:09:28;;;;;;;3.53;1.60;;;;;;;;;;5092290;28;20063;-46
2022/01/28 09:12:07;;;;;;;5.80;1.63;;;;;;;;;;5092623;28;20061;-46
2022/01/28 09:14:34;;;;;;;3.63;1.83;;;;;;;;;;5092303;28;20163;-46
2022/01/28 09:16:59;;;;;;;4.30;1.70;;;;;;;;;;5092645;28;20425;-46
2022/01/28 09:19:25;;;;;;;4.82;1.70;;;;;;;;;;5092170;28;20027;-46
2022/01/28 09:21:52;;;;;;;7.90;2.55;;;;;;;;;;5091930;28;20486;-47
2022/01/28 09:24:18;;;;;;;4.88;1.77;;;;;;;;;;5092017;28;20101;-46
2022/01/28 09:26:44;;;;;;;3.88;1.50;;;;;;;;;;5092443;28;20386;-46
2022/01/28 09:29:10;;;;;;;4.30;1.50;;;;;;;;;;5092173;28;20036;-47
2022/01/28 09:31:36;;;;;;;4.85;1.55;;;;;;;;;;5092120;28;20051;-46
2022/01/28 09:34:02;;;;;;;5.13;1.90;;;;;;;;;;5092232;28;20031;-46
2022/01/28 09:36:28;;;;;;;4.38;1.30;;;;;;;;;;5092139;28;20063;-47
2022/01/28 09:38:54;;;;;;;3.70;1.45;;;;;;;;;;5091997;28;20024;-42
2022/01/28 09:41:22;;;;;;;3.05;1.80;;;;;;;;;;5092006;28;20467;-42
2022/01/28 09:43:48;;;;;;;4.55;1.60;;;;;;;;;;5092304;28;20081;-42
2022/01/28 09:46:14;;;;;;;8.55;1.80;;;;;;;;;;5091950;28;20068;-44
2022/01/28 09:48:40;;;;;;;3.47;1.63;;;;;;;;;;5090790;28;20100;-44
2022/01/28 09:51:07;;;;;;;5.13;1.88;;;;;;;;;;5092262;28;20032;-44
2022/01/28 09:53:33;;;;;;;6.25;1.90;;;;;;;;;;5092031;28;20103;-43
2022/01/28 09:55:59;;;;;;;4.13;1.27;;;;;;;;;;5092365;28;20101;-45
2022/01/28 09:58:25;;;;;;;6.53;1.67;;;;;;;;;;5092299;28;20481;-43
2022/01/28 10:00:52;;;;;;;8.98;2.00;;;;;;;;;;5091894;28;20036;-43
2022/01/28 10:03:18;;;;;;;3.83;1.67;;;;;;;;;;5092979;28;20048;-43
2022/01/28 10:05:50;;;;;;;4.88;1.55;;;18.10;92.60;;;;;;5095570;28;20059;-42
2022/01/28 10:08:24;;;;;;;3.85;1.38;;;18.40;89.70;;;;;;5095690;28;20162;-42
2022/01/28 10:10:50;;;;;;;3.03;1.20;;;;;;;;;;5095609;28;20470;-42
2022/01/28 10:13:25;;;;;;;4.30;1.50;;;18.50;93.00;;;;;;5095599;28;20027;-43
2022/01/28 10:16:05;;;;;;;3.22;1.70;;;18.50;90.30;;;;;;5095625;28;20090;-43
2022/01/28 10:18:42;;;;;;;5.13;1.55;;;18.40;90.30;;;;;;5096124;28;20032;-43
2022/01/28 10:21:25;;;;;;;2.92;1.30;;;18.60;90.40;;;;;;5095418;28;20034;-42
2022/01/28 10:24:25;;;;;;;2.33;1.40;;;18.30;90.60;;;;;;5095622;28;20024;-42
2022/01/28 10:26:53;;;;;;;1.52;1.08;;;18.40;93.40;;;;;;5095934;28;20047;-42
2022/01/28 10:29:30;;;;;;;6.68;1.83;;;18.30;90.50;;;;;;5095307;28;20482;-42
2022/01/28 10:31:57;;;;;;;3.90;1.42;;;18.40;93.60;;;;;;5095272;28;20402;-42
2022/01/28 10:34:31;;;;;;;2.67;1.20;;;18.30;93.60;;;;;;5095293;28;20024;-42
2022/01/28 10:37:28;;;;;;;5.57;1.58;;;18.20;90.80;;;;;;5095457;28;20031;-43
2022/01/28 10:39:54;;;;;;;3.30;1.05;;;;;;;;;;5095145;28;20028;-42
2022/01/28 10:42:34;;;;;;;3.53;1.35;;;18.10;93.80;;;;;;5095103;28;20028;-42
2022/01/28 10:45:12;;;;;;;3.33;1.50;;;18.20;93.70;;;;;;5095210;28;20035;-43
2022/01/28 10:47:43;;;;;;;3.03;1.13;;;18.00;90.80;;;;;;5094919;28;20483;-42
2022/01/28 10:50:24;;;;;;;2.10;1.13;;;17.90;90.90;;;;;;5094911;28;20028;-44
2022/01/28 10:53:07;;;;;;;2.65;1.85;;;18.00;90.70;;;;;;5094903;28;20065;-44
2022/01/28 10:55:36;;;;;;;3.45;0.90;;;18.00;93.50;;;;;;5094665;28;20111;-43
2022/01/28 10:58:13;;;;;;;1.63;1.13;;;17.90;93.40;;;;;;5094727;28;20093;-44
2022/01/28 11:00:44;;;;;;;2.88;1.27;;;17.90;93.50;;;;;;5094802;28;20039;-43
2022/01/28 11:03:12;;;;;;;1.73;0.93;;;17.90;93.20;;;;;;5094405;28;20036;-44
2022/01/28 11:05:39;;;;;;;3.10;1.27;;;;;;;;;;5094258;28;20036;-45
2022/01/28 11:08:08;;;;;;;2.03;1.10;;;17.90;93.40;;;;;;5094495;28;20024;-42
2022/01/28 11:10:34;;;;;;;2.95;1.00;;;;;;;;;;5094349;28;20028;-46
2022/01/28 11:13:01;;;;;;;2.50;1.20;;;17.80;93.30;;;;;;5094332;28;20032;-46
2022/01/28 11:15:28;;;;;;;1.88;1.00;;;17.80;93.20;;;;;;5093685;28;20039;-46
2022/01/28 11:17:54;;;;;;;2.55;0.88;;;;;;;;;;5094451;28;20020;-46
2022/01/28 11:20:24;;;;;;;3.13;1.15;;;;;;;;;;5094220;28;20097;-48
2022/01/28 11:23:22;;;;;;;3.80;1.30;;;17.70;90.70;;;;;;5094068;28;20386;-46
2022/01/28 11:26:16;;;;;;;2.42;0.82;;;17.80;90.60;;;;;;5094099;28;20032;-46
2022/01/28 11:28:44;;;;;;;1.90;0.98;;;17.80;93.60;;;;;;5094412;28;20020;-46
2022/01/28 11:31:11;;;;;;;2.08;1.05;;;;;;;;;;5092605;28;20467;-46
2022/01/28 11:33:48;;;;;;;1.80;1.00;;;;;;;;;;5093909;28;20032;-47
2022/01/28 11:36:14;;;;;;;2.17;0.80;;;;;;;;;;5094080;28;20028;-48
2022/01/28 11:38:43;;;;;;;2.67;0.70;;;18.00;93.40;;;;;;5093993;28;20105;-46
2022/01/28 11:41:08;;;;;;;2.75;1.15;;;;;;;;;;5093717;28;20466;-46
2022/01/28 11:43:35;;;;;;;2.33;0.77;;;;;;;;;;5093763;28;20028;-46
2022/01/28 11:46:15;;;;;;;1.92;1.00;;;18.10;90.80;;;;;;5093537;28;20119;-46
2022/01/28 11:48:53;;;;;;;2.22;0.93;;;18.20;91.00;;;;;;5093864;28;20107;-45
2022/01/28 11:51:41;;;;;;;1.27;0.77;;;18.00;93.80;;;;;;5093632;28;20028;-46
2022/01/28 11:54:20;;;;;;;1.88;0.90;;;18.10;90.80;;;;;;5093595;28;20031;-46
2022/01/28 11:56:58;;;;;;;1.73;0.75;;;18.10;90.70;;;;;;5093536;28;20111;-47
2022/01/28 11:59:28;;;;;;;4.60;1.63;;;18.10;90.70;;;;;;5093458;28;20035;-46
2022/01/28 12:01:54;;;;;;;6.65;1.15;;;;;;;;;;5093457;28;20449;-46
2022/01/28 12:04:26;;;;;;;0.88;0.73;;;18.30;90.80;;;;;;5093208;28;20439;-46
2022/01/28 12:07:00;;;;;;;16.08;1.35;;;;;;;;;;5093781;28;20038;-43
2022/01/28 12:09:36;;;;;;;2.28;1.00;;;18.20;90.70;;;;;;5093371;28;20089;-43
2022/01/28 12:12:03;;;;;;;2.45;0.90;;;;;;;;;;5093257;28;20099;-43
2022/01/28 12:15:09;;;;;;;1.35;0.73;;;18.30;90.80;;;;;;5093440;28;20024;-43
2022/01/28 12:17:36;;;;;;;4.05;0.73;;;;;;;;;;5093115;28;20024;-44
2022/01/28 12:20:14;;;;;;;2.45;1.05;;;18.30;90.80;;;;;;5093334;28;20111;-43
2022/01/28 12:22:59;;;;;;;1.85;0.70;;;18.30;90.70;;;;;;5092962;28;20505;-43
2022/01/28 12:25:39;;;;;;;2.67;1.10;;;18.40;90.80;;;;;;5092298;28;20043;-45
2022/01/28 12:28:15;;;;;;;;;;;18.30;93.80;;;;;;5093768;28;20039;-43
2022/01/28 12:31:05;;;;;;;1.10;0.65;;;18.20;90.60;;;;;;5093059;28;20282;-43
2022/01/28 12:33:33;;;;;;;2.10;0.90;;;18.30;93.60;;;;;;5093044;28;20032;-44
2022/01/28 12:36:07;;;;;;;1.48;0.68;;;18.20;93.60;;;;;;5092914;28;20115;-43
2022/01/28 12:38:34;;;;;;;2.35;0.70;;;;;;;;;;5092824;28;20028;-44
2022/01/28 12:41:08;;;;;;;1.48;0.88;;;;;;;;;;5092829;28;20114;-43
2022/01/28 12:43:37;;;;;;;2.28;0.88;;;18.30;93.50;;;;;;5092764;28;20020;-43
2022/01/28 12:46:06;;;;;;;1.50;0.70;;;18.40;90.60;;;;;;5092824;28;20036;-43
2022/01/28 12:48:32;;;;;;;2.27;0.83;;;;;;;;;;5092601;28;20040;-42
2022/01/28 12:51:00;;;;;;;1.58;0.60;;;18.30;92.10;;;;;;5092545;28;20278;-43
2022/01/28 12:53:34;;;;;;;1.63;0.95;;;18.30;93.40;;;;;;5092625;28;20024;-44
2022/01/28 12:56:01;;;;;;;1.08;0.63;;;;;;;;;;5092795;28;20032;-43
2022/01/28 12:58:39;;;;;;;1.77;0.70;;;18.30;90.40;;;;;;5092426;28;20559;-44
2022/01/28 13:01:10;;;;;;;1.45;0.70;;;18.30;91.70;;;;;;5092795;28;20028;-47
2022/01/28 13:03:44;;;;;;;2.35;0.75;;;;;;;;;;5092344;28;20047;-43
2022/01/28 13:06:28;;;;;;;2.65;0.50;;;18.10;90.60;;;;;;5092422;28;20032;-43
2022/01/28 13:08:54;;;;;;;1.75;0.60;;;;;;;;;;5092343;28;20105;-42
2022/01/28 13:11:20;;;;;;;1.55;0.85;;;;;;;;;;5092502;28;20073;-43
2022/01/28 13:13:52;;;;;;;1.75;0.85;;;18.50;90.40;;;;;;5092284;28;20020;-43
2022/01/28 13:16:32;;;;;;;1.38;0.63;;;18.60;93.30;;;;;;5092235;28;20023;-43
2022/01/28 13:18:58;;;;;;;;;;;;;;;;;;5093116;28;20027;-46
2022/01/28 13:21:24;;;;;;;2.78;0.43;;;;;;;;;;5092273;28;19904;-45
2022/01/28 13:24:04;;;;;;;1.20;0.80;;;18.90;92.80;;;;;;5092302;28;20036;-49
2022/01/28 13:26:30;;;;;;;0.88;0.70;;;;;;;;;;5092293;28;20035;-47
2022/01/28 13:29:09;;;;;;;1.02;0.60;;;19.00;89.00;;;;;;5092271;28;20020;-46
2022/01/28 13:31:35;;;;;;;1.95;0.65;;;;;;;;;;5092136;28;20070;-46
2022/01/28 13:34:04;;;;;;;1.88;0.68;;;;;;;;;;5092298;28;20032;-47
2022/01/28 13:36:50;;;;;;;0.88;0.40;;;19.10;88.20;;;;;;5092175;28;20020;-46
2022/01/28 13:39:18;;;;;;;0.98;0.63;;;19.30;92.00;;;;;;5096322;28;20028;-47
2022/01/28 13:41:47;;;;;;;1.20;0.60;;;;;;;;;;5096095;28;20028;-46
2022/01/28 13:44:25;;;;;;;1.50;0.60;;;19.50;88.50;;;;;;5096119;28;20032;-46
2022/01/28 13:46:55;;;;;;;1.15;0.43;;;19.50;87.50;;;;;;5096060;28;20115;-46
2022/01/28 13:49:23;;;;;;;1.52;0.55;;;;;;;;;;5096219;28;20016;-47
2022/01/28 13:51:50;;;;;;;1.63;0.52;;;;;;;;;;5095994;28;20020;-46
2022/01/28 13:54:18;;;;;;;2.47;0.60;;;;;;;;;;5095824;28;20462;-48
2022/01/28 13:56:46;;;;;;;1.42;0.70;;;;;;;;;;5096238;28;20032;-46
2022/01/28 13:59:13;;;;;;;2.28;0.77;;;;;;;;;;5095936;28;20020;-46
2022/01/28 14:01:44;;;;;;;1.65;0.70;;;19.70;91.40;;;;;;5095716;28;20028;-46
2022/01/28 14:04:25;;;;;;;3.47;0.63;;;19.60;91.50;;;;;;5095414;28;20108;-47
2022/01/28 14:07:17;;;;;;;2.25;0.70;;;19.80;91.50;;;;;;5095816;28;20410;-46
2022/01/28 14:10:04;;;;;;;1.00;0.50;;;19.80;91.40;;;;;;5095517;28;20103;-45
2022/01/28 14:12:44;;;;;;;2.63;0.60;;;;;;;;;;5095453;28;20024;-46
2022/01/28 14:15:41;;;;;;;1.73;0.55;;;19.90;86.80;;;;;;5095494;28;20027;-43
2022/01/28 14:18:07;;;;;;;1.60;0.68;;;;;;;;;;5095772;28;20032;-43
2022/01/28 14:20:35;;;;;;;4.03;0.70;;;;;;;;;;5095400;28;20063;-43
2022/01/28 14:23:01;;;;;;;3.03;0.82;;;;;;;;;;5095514;28;20355;-44
2022/01/28 14:25:27;;;;;;;1.55;0.80;;;;;;;;;;5095248;28;20032;-43
2022/01/28 14:28:12;;;;;;;2.60;0.80;;;;;;;;;;5094884;28;20492;-43
2022/01/28 14:30:40;;;;;;;1.00;0.40;;;;;;;;;;5095302;28;20027;-42
2022/01/28 14:33:07;;;;;;;1.95;0.70;;;;;;;;;;5095026;28;20024;-43
2022/01/28 14:35:35;;;;;;;2.10;0.63;;;;;;;;;;5095349;28;20032;-43
2022/01/28 14:38:01;;;;;;;2.92;0.70;;;;;;;;;;5095288;28;20020;-43
2022/01/28 14:40:27;;;;;;;2.20;0.75;;;;;;;;;;5095356;28;20038;-43
2022/01/28 14:42:53;;;;;;;3.30;0.75;;;;;;;;;;5094912;28;20028;-43
2022/01/28 14:45:19;;;;;;;1.83;0.95;;;;;;;;;;5095026;28;20043;-42
2022/01/28 14:47:45;;;;;;;1.27;0.63;;;;;;;;;;5095231;28;20020;-43
2022/01/28 14:50:12;;;;;;;3.85;0.60;;;;;;;;;;5094779;28;20426;-43
2022/01/28 14:52:38;;;;;;;1.23;0.60;;;;;;;;;;5094875;28;20016;-42
2022/01/28 14:55:04;;;;;;;3.00;0.57;;;;;;;;;;5094852;28;20043;-43
2022/01/28 14:57:30;;;;;;;3.33;0.90;;;;;;;;;;5094631;28;20024;-43
2022/01/28 14:59:56;;;;;;;2.13;0.82;;;;;;;;;;5094567;28;20580;-42
2022/01/28 15:02:24;;;;;;;3.25;0.65;;;18.80;92.10;;;;;;5094555;28;20028;-42
2022/01/28 15:04:58;;;;;;;2.25;0.77;;;18.80;88.90;;;;;;5094358;28;20036;-43
2022/01/28 15:07:28;;;;;;;1.30;0.73;;;18.80;92.40;;;;;;5094585;28;20035;-42
2022/01/28 15:09:56;;;;;;;3.47;0.90;;;;;;;;;;5094639;28;20016;-43
2022/01/28 15:12:22;;;;;;;1.77;0.65;;;;;;;;;;5094773;28;20028;-45
2022/01/28 15:14:48;;;;;;;0.95;0.70;;;;;;;;;;5094887;28;20106;-44
2022/01/28 15:17:18;;;;;;;2.75;1.02;;;18.60;89.80;;;;;;5094410;28;20390;-43
2022/01/28 15:19:45;;;;;;;1.33;0.55;;;;;;;;;;5094290;28;20028;-43
2022/01/28 15:22:11;;;;;;;1.70;0.73;;;;;;;;;;5094499;28;20077;-43
2022/01/28 15:24:37;;;;;;;1.52;0.40;;;;;;;;;;5094066;28;20115;-43
2022/01/28 15:27:03;;;;;;;1.33;0.40;;;;;;;;;;5094128;28;20088;-44
2022/01/28 15:37:12;;;;;;;3.17;0.80;;;;;;;;;;5094332;28;20035;-44
2022/01/28 15:39:38;;;;;;;2.83;0.82;;;;;;;;;;5093928;28;20039;-44
2022/01/28 15:42:07;;;;;;;1.38;0.82;;;18.00;91.80;;;;;;5094047;28;20024;-43
2022/01/28 15:44:33;;;;;;;1.88;0.93;;;;;;;;;;5093857;28;20060;-43
2022/01/28 15:47:00;;;;;;;1.48;0.88;;;18.00;90.50;;;;;;5093892;28;20028;-48
2022/01/28 15:49:26;;;;;;;2.63;1.10;;;;;;;;;;5094091;28;20422;-48